createdAt,value
2023-03-11T00:02:04.195Z,97601.00
2023-03-11T00:05:06.468Z,97604.44
2023-03-11T00:08:09.212Z,97613.94
2023-03-11T00:11:10.591Z,97607.94
2023-03-11T00:14:12.133Z,97610.50
2023-03-11T00:17:13.622Z,97617.34
2023-03-11T00:20:20.556Z,97612.97
2023-03-11T00:23:22.108Z,97602.78
2023-03-11T00:26:23.638Z,97601.13
2023-03-11T00:29:25.123Z,97601.19
2023-03-11T00:32:26.681Z,97615.81
2023-03-11T00:35:30.174Z,97625.03
2023-03-11T00:38:31.827Z,97634.56
2023-03-11T00:41:34.350Z,97628.53
2023-03-11T00:44:35.898Z,97629.44
2023-03-11T00:47:37.447Z,97630.22
2023-03-11T00:50:39.085Z,97626.75
2023-03-11T00:53:40.816Z,97638.13
2023-03-11T00:56:42.322Z,97637.06
2023-03-11T00:59:43.809Z,97632.66
2023-03-11T01:02:45.263Z,97626.88
2023-03-11T01:05:46.762Z,97619.00
2023-03-11T01:08:48.283Z,97611.94
2023-03-11T01:11:49.770Z,97612.91
2023-03-11T01:14:51.298Z,97615.47
2023-03-11T01:17:52.778Z,97640.31
2023-03-11T01:20:54.338Z,97650.56
2023-03-11T01:23:55.830Z,97644.59
2023-03-11T01:26:57.318Z,97656.44
2023-03-11T01:29:58.832Z,97651.22
2023-03-11T01:33:00.330Z,97659.03
2023-03-11T01:36:01.864Z,97649.56
2023-03-11T01:39:03.506Z,97639.22
2023-03-11T01:42:05.324Z,97648.44
2023-03-11T01:45:31.929Z,97636.38
2023-03-11T01:48:33.439Z,97633.25
2023-03-11T01:51:35.874Z,97631.22
2023-03-11T01:54:38.563Z,97617.50
2023-03-11T01:57:40.210Z,97627.81
2023-03-11T02:00:42.034Z,97632.22
2023-03-11T02:03:43.569Z,97652.53
2023-03-11T02:06:45.052Z,97650.00
2023-03-11T02:09:46.586Z,97649.31
2023-03-11T02:12:48.677Z,97663.94
2023-03-11T02:15:50.210Z,97657.72
2023-03-11T02:18:51.835Z,97657.56
2023-03-11T02:21:53.310Z,97658.19
2023-03-11T02:25:31.398Z,97669.53
2023-03-11T02:28:33.378Z,97661.81
2023-03-11T02:31:35.721Z,97654.75
2023-03-11T02:34:38.647Z,97650.44
2023-03-11T02:37:50.878Z,97649.44
2023-03-11T02:40:59.750Z,97653.41
2023-03-11T02:44:01.482Z,97652.44
2023-03-11T02:47:03.113Z,97666.28
2023-03-11T02:50:05.345Z,97683.50
2023-03-11T02:53:06.907Z,97665.19
2023-03-11T02:56:08.458Z,97638.00
2023-03-11T02:59:10.027Z,97649.06
2023-03-11T03:02:11.514Z,97642.13
2023-03-11T03:05:13.179Z,97628.34
2023-03-11T03:08:14.653Z,97641.03
2023-03-11T03:11:16.198Z,97661.78
2023-03-11T03:14:17.731Z,97650.69
2023-03-11T03:17:19.271Z,97647.75
2023-03-11T03:20:22.656Z,97631.31
2023-03-11T03:23:24.215Z,97635.56
2023-03-11T03:26:25.711Z,97638.91
2023-03-11T03:29:27.310Z,97657.19
2023-03-11T03:32:28.855Z,97668.06
2023-03-11T03:35:30.352Z,97664.34
2023-03-11T03:38:31.848Z,97656.72
2023-03-11T03:41:33.436Z,97667.03
2023-03-11T03:44:34.959Z,97672.91
2023-03-11T03:47:36.558Z,97684.03
2023-03-11T03:50:39.775Z,97688.31
2023-03-11T03:53:41.351Z,97693.53
2023-03-11T03:56:42.849Z,97689.00
2023-03-11T03:59:44.356Z,97694.34
2023-03-11T04:02:45.843Z,97696.78
2023-03-11T04:05:47.354Z,97681.97
2023-03-11T04:08:48.938Z,97676.56
2023-03-11T04:11:50.488Z,97680.25
2023-03-11T04:14:52.014Z,97677.09
2023-03-11T04:17:53.547Z,97660.84
2023-03-11T04:20:55.193Z,97670.34
2023-03-11T04:23:56.674Z,97661.72
2023-03-11T04:26:58.173Z,97666.84
2023-03-11T04:30:00.055Z,97666.03
2023-03-11T04:33:01.554Z,97669.41
2023-03-11T04:36:07.302Z,97684.88
2023-03-11T04:39:09.097Z,97679.84
2023-03-11T04:42:10.618Z,97687.28
2023-03-11T04:45:12.205Z,97687.13
2023-03-11T04:48:13.706Z,97685.19
2023-03-11T04:51:15.230Z,97689.00
2023-03-11T04:54:16.748Z,97685.00
2023-03-11T04:57:18.197Z,97685.91
2023-03-11T05:00:24.903Z,97662.13
2023-03-11T05:03:26.556Z,97655.34
2023-03-11T05:06:28.040Z,97647.16
2023-03-11T05:09:29.541Z,97658.47
2023-03-11T05:12:31.052Z,97660.31
2023-03-11T05:15:32.944Z,97650.91
2023-03-11T05:18:34.507Z,97653.47
2023-03-11T05:21:36.140Z,97650.09
2023-03-11T05:24:37.678Z,97649.34
2023-03-11T05:27:39.185Z,97649.25
2023-03-11T05:30:40.738Z,97652.69
2023-03-11T05:33:42.205Z,97656.22
2023-03-11T05:36:43.938Z,97645.63
2023-03-11T05:39:45.424Z,97659.22
2023-03-11T05:42:46.949Z,97652.50
2023-03-11T05:45:48.493Z,97649.72
2023-03-11T05:48:49.982Z,97648.03
2023-03-11T05:51:51.498Z,97645.41
2023-03-11T05:54:53.015Z,97633.56
2023-03-11T05:57:54.880Z,97643.72
2023-03-11T06:00:56.438Z,97644.59
2023-03-11T06:03:58.122Z,97645.88
2023-03-11T06:06:59.694Z,97646.66
2023-03-11T06:10:01.570Z,97638.25
2023-03-11T06:13:03.060Z,97629.56
2023-03-11T06:16:04.850Z,97635.28
2023-03-11T06:19:06.342Z,97638.09
2023-03-11T06:22:07.880Z,97656.34
2023-03-11T06:25:09.583Z,97666.41
2023-03-11T06:28:11.191Z,97654.56
2023-03-11T06:31:15.913Z,97651.66
2023-03-11T06:34:17.472Z,97668.72
2023-03-11T06:37:19.040Z,97681.56
2023-03-11T06:40:20.576Z,97673.31
2023-03-11T06:43:22.211Z,97684.81
2023-03-11T06:46:23.934Z,97683.34
2023-03-11T06:49:25.402Z,97688.50
2023-03-11T06:52:26.919Z,97682.44
2023-03-11T06:55:28.595Z,97693.16
2023-03-11T06:58:30.216Z,97704.03
2023-03-11T07:01:31.917Z,97702.72
2023-03-11T07:04:33.543Z,97711.16
2023-03-11T07:07:35.021Z,97722.50
2023-03-11T07:10:36.553Z,97725.34
2023-03-11T07:13:38.095Z,97723.69
2023-03-11T07:16:39.870Z,97726.34
2023-03-11T07:19:41.513Z,97738.47
2023-03-11T07:22:43.070Z,97744.28
2023-03-11T07:25:47.891Z,97748.56
2023-03-11T07:28:49.484Z,97753.41
2023-03-11T07:31:51.012Z,97749.41
2023-03-11T07:34:52.552Z,97765.19
2023-03-11T07:37:54.040Z,97766.91
2023-03-11T07:40:59.311Z,97784.19
2023-03-11T07:44:01.218Z,97795.53
2023-03-11T07:47:05.979Z,97813.09
2023-03-11T07:50:07.655Z,97819.44
2023-03-11T07:53:09.132Z,97834.94
2023-03-11T07:56:11.765Z,97855.78
2023-03-11T07:59:13.310Z,97855.72
2023-03-11T08:02:14.790Z,97844.06
2023-03-11T08:05:16.474Z,97854.06
2023-03-11T08:08:17.988Z,97848.25
2023-03-11T08:11:20.676Z,97851.94
2023-03-11T08:14:22.102Z,97851.06
2023-03-11T08:17:23.647Z,97861.28
2023-03-11T08:20:25.164Z,97847.97
2023-03-11T08:23:26.639Z,97854.47
2023-03-11T08:26:28.248Z,97860.25
2023-03-11T08:29:29.732Z,97871.63
2023-03-11T08:32:31.679Z,97858.38
2023-03-11T08:35:33.351Z,97857.28
2023-03-11T08:38:34.986Z,97853.31
2023-03-11T08:41:36.490Z,97874.41
2023-03-11T08:44:37.967Z,97885.50
2023-03-11T08:47:39.593Z,97877.56
2023-03-11T08:50:53.247Z,97884.16
2023-03-11T08:53:55.196Z,97887.03
2023-03-11T08:56:56.763Z,97895.06
2023-03-11T08:59:58.399Z,97896.28
2023-03-11T09:02:59.914Z,97905.94
2023-03-11T09:06:02.318Z,97895.50
2023-03-11T09:09:03.952Z,97893.59
2023-03-11T09:12:07.809Z,97896.16
2023-03-11T09:15:09.651Z,97892.34
2023-03-11T09:18:14.826Z,97905.50
2023-03-11T09:21:16.375Z,97899.78
2023-03-11T09:24:18.087Z,97900.94
2023-03-11T09:27:19.613Z,97904.91
2023-03-11T09:30:21.185Z,97910.94
2023-03-11T09:33:22.667Z,97915.69
2023-03-11T09:36:24.411Z,97919.16
2023-03-11T09:39:25.919Z,97917.34
2023-03-11T09:42:27.241Z,97918.63
2023-03-11T09:45:29.982Z,97905.69
2023-03-11T09:48:40.406Z,97906.53
2023-03-11T09:51:43.411Z,97913.56
2023-03-11T09:54:49.267Z,97917.72
2023-03-11T09:57:50.714Z,97900.53
2023-03-11T10:00:52.452Z,97922.22
2023-03-11T10:04:00.713Z,97901.19
2023-03-11T10:07:02.318Z,97904.22
2023-03-11T10:10:04.208Z,97885.75
2023-03-11T10:13:17.712Z,97880.41
2023-03-11T10:16:27.152Z,97892.56
2023-03-11T10:19:45.456Z,97889.22
2023-03-11T10:22:58.994Z,97888.00
2023-03-11T10:26:20.614Z,97886.50
2023-03-11T10:29:30.513Z,97881.22
2023-03-11T10:32:40.623Z,97878.63
2023-03-11T10:35:44.704Z,97889.09
2023-03-11T10:38:49.585Z,97886.13
2023-03-11T10:41:59.437Z,97890.34
2023-03-11T10:45:01.315Z,97885.84
2023-03-11T10:48:02.785Z,97910.00
2023-03-11T10:51:09.639Z,97905.88
2023-03-11T10:54:30.008Z,97894.34
2023-03-11T10:57:36.180Z,97888.03
2023-03-11T11:00:37.676Z,97907.91
2023-03-11T11:03:42.115Z,97902.72
2023-03-11T11:06:43.614Z,97903.28
2023-03-11T11:09:45.119Z,97891.56
2023-03-11T11:13:00.844Z,97877.16
2023-03-11T11:16:04.304Z,97864.84
2023-03-11T11:19:13.017Z,97870.91
2023-03-11T11:22:16.604Z,97858.03
2023-03-11T11:25:35.485Z,97873.22
2023-03-11T11:28:37.493Z,97886.66
2023-03-11T11:31:43.231Z,97884.94
2023-03-11T11:35:01.099Z,97881.50
2023-03-11T11:38:02.596Z,97865.56
2023-03-11T11:41:04.924Z,97867.59
2023-03-11T11:44:06.637Z,97868.44
2023-03-11T11:47:14.298Z,97873.00
2023-03-11T11:50:33.143Z,97867.88
2023-03-11T11:53:44.394Z,97872.00
2023-03-11T11:56:45.870Z,97864.91
2023-03-11T11:59:47.448Z,97843.44
2023-03-11T12:03:02.306Z,97843.31
2023-03-11T12:06:32.833Z,97845.75
2023-03-11T12:09:49.465Z,97847.81
2023-03-11T12:13:15.297Z,97862.03
2023-03-11T12:16:37.460Z,97862.19
2023-03-11T12:19:38.818Z,97862.53
2023-03-11T12:23:01.808Z,97861.81
2023-03-11T12:26:09.234Z,97848.13
2023-03-11T12:29:22.944Z,97838.53
2023-03-11T12:32:42.049Z,97833.66
2023-03-11T12:35:48.893Z,97841.56
2023-03-11T12:38:50.499Z,97831.13
2023-03-11T12:42:10.854Z,97849.63
2023-03-11T12:45:47.676Z,97838.03
2023-03-11T12:49:07.330Z,97840.16
2023-03-11T12:52:08.683Z,97845.56
2023-03-11T12:55:19.190Z,97834.28
2023-03-11T12:58:43.369Z,97833.63
2023-03-11T13:02:00.047Z,97838.19
2023-03-11T13:05:10.574Z,97814.59
2023-03-11T13:08:29.162Z,97833.75
2023-03-11T13:11:33.643Z,97830.25
2023-03-11T13:14:35.549Z,97837.69
2023-03-11T13:17:37.214Z,97847.41
2023-03-11T13:20:38.704Z,97847.81
2023-03-11T13:23:43.056Z,97833.22
2023-03-11T13:27:16.845Z,97826.78
2023-03-11T13:30:19.930Z,97849.97
2023-03-11T13:33:32.564Z,97843.78
2023-03-11T13:36:46.542Z,97838.56
2023-03-11T13:39:54.927Z,97844.97
2023-03-11T13:42:58.996Z,97857.19
2023-03-11T13:46:35.662Z,97837.72
2023-03-11T13:49:43.101Z,97835.97
2023-03-11T13:52:48.273Z,97809.81
2023-03-11T13:55:49.775Z,97847.78
2023-03-11T13:58:51.245Z,97838.66
2023-03-11T14:02:13.402Z,97839.75
2023-03-11T14:05:16.424Z,97843.19
2023-03-11T14:08:29.370Z,97845.06
2023-03-11T14:11:30.879Z,97836.66
2023-03-11T14:14:39.018Z,97839.38
2023-03-11T14:17:40.485Z,97845.59
2023-03-11T14:20:42.128Z,97841.31
2023-03-11T14:23:47.520Z,97846.66
2023-03-11T14:26:49.805Z,97854.72
2023-03-11T14:29:51.354Z,97856.41
2023-03-11T14:33:06.341Z,97856.47
2023-03-11T14:36:11.134Z,97861.66
2023-03-11T14:39:29.073Z,97858.09
2023-03-11T14:42:38.354Z,97852.13
2023-03-11T14:45:39.894Z,97856.41
2023-03-11T14:48:41.764Z,97854.66
2023-03-11T14:51:43.232Z,97853.03
2023-03-11T14:54:44.739Z,97852.13
2023-03-11T14:57:47.967Z,97848.66
2023-03-11T15:00:50.790Z,97857.31
2023-03-11T15:04:14.132Z,97872.66
2023-03-11T15:07:19.545Z,97866.75
2023-03-11T15:10:21.039Z,97869.28
2023-03-11T15:13:23.968Z,97873.47
2023-03-11T15:16:35.494Z,97872.63
2023-03-11T15:19:38.296Z,97870.81
2023-03-11T15:22:39.914Z,97881.22
2023-03-11T15:25:41.447Z,97885.50
2023-03-11T15:28:42.989Z,97880.28
2023-03-11T15:31:47.926Z,97879.41
2023-03-11T15:35:00.029Z,97880.28
2023-03-11T15:38:25.321Z,97882.00
2023-03-11T15:41:26.833Z,97885.38
2023-03-11T15:44:29.620Z,97881.88
2023-03-11T15:47:31.191Z,97891.41
2023-03-11T15:50:46.944Z,97897.50
2023-03-11T15:53:54.234Z,97894.91
2023-03-11T15:56:56.584Z,97894.78
2023-03-11T15:59:58.657Z,97905.16
2023-03-11T16:03:01.580Z,97907.69
2023-03-11T16:06:03.085Z,97904.22
2023-03-11T16:09:05.059Z,97913.81
2023-03-11T16:12:19.480Z,97910.31
2023-03-11T16:15:25.022Z,97911.09
2023-03-11T16:18:26.610Z,97928.38
2023-03-11T16:21:33.519Z,97923.16
2023-03-11T16:24:35.021Z,97928.19
2023-03-11T16:27:36.635Z,97924.78
2023-03-11T16:30:38.117Z,97919.72
2023-03-11T16:33:39.603Z,97924.06
2023-03-11T16:36:41.324Z,97920.41
2023-03-11T16:39:42.872Z,97926.59
2023-03-11T16:42:44.379Z,97915.34
2023-03-11T16:45:45.894Z,97922.34
2023-03-11T16:48:47.529Z,97922.16
2023-03-11T16:51:49.069Z,97927.50
2023-03-11T16:54:50.598Z,97933.63
2023-03-11T16:57:52.176Z,97936.25
2023-03-11T17:00:53.652Z,97948.34
2023-03-11T17:03:55.157Z,97945.47
2023-03-11T17:06:56.690Z,97960.09
2023-03-11T17:09:59.033Z,97958.09
2023-03-11T17:13:00.530Z,97955.59
2023-03-11T17:16:02.352Z,97966.72
2023-03-11T17:19:03.962Z,97969.97
2023-03-11T17:22:05.451Z,97974.03
2023-03-11T17:25:07.434Z,97983.66
2023-03-11T17:28:09.076Z,97988.97
2023-03-11T17:31:14.826Z,97984.53
2023-03-11T17:34:16.717Z,98003.41
2023-03-11T17:37:18.769Z,98001.69
2023-03-11T17:40:20.425Z,98004.19
2023-03-11T17:43:21.946Z,98009.19
2023-03-11T17:46:23.612Z,98018.69
2023-03-11T17:49:25.144Z,98019.84
2023-03-11T17:52:26.651Z,98026.72
2023-03-11T17:55:28.140Z,98025.94
2023-03-11T17:58:29.641Z,98034.53
2023-03-11T18:01:31.493Z,98032.53
2023-03-11T18:04:32.982Z,98040.09
2023-03-11T18:07:38.894Z,98037.31
2023-03-11T18:10:40.384Z,98037.38
2023-03-11T18:13:41.969Z,98033.00
2023-03-11T18:16:43.553Z,98033.59
2023-03-11T18:19:45.061Z,98045.63
2023-03-11T18:22:47.277Z,98048.28
2023-03-11T18:25:52.124Z,98050.69
2023-03-11T18:28:56.876Z,98048.00
2023-03-11T18:31:58.365Z,98056.78
2023-03-11T18:34:59.934Z,98065.09
2023-03-11T18:38:01.421Z,98058.16
2023-03-11T18:41:02.895Z,98060.69
2023-03-11T18:44:04.616Z,98059.63
2023-03-11T18:47:06.191Z,98065.28
2023-03-11T18:50:08.053Z,98065.66
2023-03-11T18:53:09.587Z,98076.94
2023-03-11T18:56:12.831Z,98073.97
2023-03-11T18:59:14.535Z,98081.91
2023-03-11T19:02:16.114Z,98085.69
2023-03-11T19:05:17.641Z,98092.63
2023-03-11T19:08:19.719Z,98092.38
2023-03-11T19:11:22.150Z,98092.91
2023-03-11T19:14:23.715Z,98103.97
2023-03-11T19:17:25.421Z,98103.69
2023-03-11T19:20:27.106Z,98111.19
2023-03-11T19:23:28.779Z,98107.22
2023-03-11T19:26:44.814Z,98107.69
2023-03-11T19:29:47.253Z,98110.84
2023-03-11T19:32:52.648Z,98110.53
2023-03-11T19:35:55.265Z,98111.97
2023-03-11T19:38:56.772Z,98111.47
2023-03-11T19:41:58.920Z,98113.00
2023-03-11T19:45:00.475Z,98110.81
2023-03-11T19:48:02.073Z,98111.19
2023-03-11T19:51:05.729Z,98108.28
2023-03-11T19:54:07.441Z,98108.53
2023-03-11T19:57:08.931Z,98117.72
2023-03-11T20:00:11.924Z,98120.78
2023-03-11T20:03:13.650Z,98134.22
2023-03-11T20:06:18.308Z,98133.97
2023-03-11T20:09:20.397Z,98136.38
2023-03-11T20:12:22.036Z,98144.06
2023-03-11T20:15:23.597Z,98145.59
2023-03-11T20:18:25.105Z,98142.84
2023-03-11T20:21:27.080Z,98150.25
2023-03-11T20:24:28.713Z,98149.88
2023-03-11T20:27:30.249Z,98152.28
2023-03-11T20:30:31.778Z,98154.03
2023-03-11T20:33:33.806Z,98151.75
2023-03-11T20:36:35.428Z,98159.84
2023-03-11T20:39:38.508Z,98159.00
2023-03-11T20:42:40.234Z,98164.38
2023-03-11T20:45:41.787Z,98166.88
2023-03-11T20:48:43.299Z,98170.25
2023-03-11T20:51:48.061Z,98166.13
2023-03-11T20:54:49.635Z,98167.44
2023-03-11T20:57:51.262Z,98161.16
2023-03-11T21:00:52.761Z,98168.25
2023-03-11T21:03:55.338Z,98174.66
2023-03-11T21:06:58.055Z,98167.56
2023-03-11T21:09:59.686Z,98171.00
2023-03-11T21:13:01.236Z,98167.13
2023-03-11T21:16:03.962Z,98171.41
2023-03-11T21:19:08.174Z,98173.75
2023-03-11T21:22:09.797Z,98170.00
2023-03-11T21:25:11.431Z,98175.25
2023-03-11T21:28:14.009Z,98167.59
2023-03-11T21:31:17.573Z,98168.31
2023-03-11T21:34:19.197Z,98171.03
2023-03-11T21:37:20.799Z,98176.13
2023-03-11T21:40:22.296Z,98175.03
2023-03-11T21:43:24.017Z,98170.47
2023-03-11T21:46:27.847Z,98172.22
2023-03-11T21:49:29.637Z,98169.19
2023-03-11T21:52:31.272Z,98171.69
2023-03-11T21:55:33.291Z,98170.72
2023-03-11T21:58:34.950Z,98170.41
2023-03-11T22:01:36.850Z,98167.09
2023-03-11T22:04:38.630Z,98176.19
2023-03-11T22:07:40.246Z,98175.25
2023-03-11T22:10:42.044Z,98169.22
2023-03-11T22:13:45.358Z,98167.78
2023-03-11T22:16:47.182Z,98174.69
2023-03-11T22:19:48.754Z,98173.81
2023-03-11T22:22:50.265Z,98173.75
2023-03-11T22:25:51.745Z,98182.31
2023-03-11T22:28:53.221Z,98172.97
2023-03-11T22:31:54.840Z,98168.66
2023-03-11T22:34:56.362Z,98166.06
2023-03-11T22:37:57.911Z,98165.16
2023-03-11T22:41:00.400Z,98164.28
2023-03-11T22:44:01.983Z,98164.59
2023-03-11T22:47:03.446Z,98165.94
2023-03-11T22:50:05.129Z,98166.22
2023-03-11T22:53:06.596Z,98165.81
2023-03-11T22:56:12.738Z,98168.81
2023-03-11T22:59:14.202Z,98176.56
2023-03-11T23:02:15.688Z,98183.19
2023-03-11T23:05:17.236Z,98186.38
2023-03-11T23:08:18.724Z,98181.47
2023-03-11T23:11:23.766Z,98179.84
2023-03-11T23:14:37.721Z,98181.28
2023-03-11T23:17:43.624Z,98182.19
2023-03-11T23:20:45.183Z,98180.91
2023-03-11T23:23:46.841Z,98192.66
2023-03-11T23:26:48.311Z,98190.25
2023-03-11T23:29:50.535Z,98187.78
2023-03-11T23:32:52.064Z,98187.22
2023-03-11T23:35:53.615Z,98193.19
2023-03-11T23:38:55.144Z,98193.47
2023-03-11T23:41:56.612Z,98192.50
2023-03-11T23:44:58.100Z,98194.03
2023-03-11T23:47:59.586Z,98191.25
2023-03-11T23:51:01.067Z,98196.47
2023-03-11T23:54:02.619Z,98188.91
2023-03-11T23:57:04.127Z,98181.13
